sensor_id;sensor_type;location;lat;lon;timestamp;temperature;humidity
6556;DHT22;3311;48.32423000;14.29074500;2022-11-20T07:11:00;9.90;61.30
6556;DHT22;3311;48.32423000;14.29074500;2022-11-20T07:13:27;9.80;61.30
6556;DHT22;3311;48.32423000;14.29074500;2022-11-20T07:15:58;9.90;61.60
6556;DHT22;3311;48.32423000;14.29074500;2022-11-20T07:18:26;9.80;61.70
6556;DHT22;3311;48.32423000;14.29074500;2022-11-20T07:20:53;9.80;61.70
6556;DHT22;3311;48.32423000;14.29074500;2022-11-20T07:23:20;9.70;61.80
6556;DHT22;3311;48.32423000;14.29074500;2022-11-20T07:25:47;9.70;62.80
6556;DHT22;3311;48.32423000;14.29074500;2022-11-20T07:28:16;9.70;62.40
6556;DHT22;3311;48.32423000;14.29074500;2022-11-20T07:30:49;9.80;63.30
6556;DHT22;3311;48.32423000;14.29074500;2022-11-20T07:33:17;10.50;62.10
6556;DHT22;3311;48.32423000;14.29074500;2022-11-20T07:35:45;10.90;61.10
6556;DHT22;3311;48.32423000;14.29074500;2022-11-20T07:38:12;11.20;61.30
6556;DHT22;3311;48.32423000;14.29074500;2022-11-20T07:40:40;11.40;60.60
6556;DHT22;3311;48.32423000;14.29074500;2022-11-20T07:43:07;11.60;59.70
6556;DHT22;3311;48.32423000;14.29074500;2022-11-20T07:45:36;11.70;59.10
6556;DHT22;3311;48.32423000;14.29074500;2022-11-20T07:48:03;11.80;59.00
6556;DHT22;3311;48.32423000;14.29074500;2022-11-20T07:50:31;11.80;58.60
6556;DHT22;3311;48.32423000;14.29074500;2022-11-20T07:53:02;11.90;58.40
6556;DHT22;3311;48.32423000;14.29074500;2022-11-20T07:55:29;11.90;58.20
6556;DHT22;3311;48.32423000;14.29074500;2022-11-20T07:57:57;11.90;58.10
6556;DHT22;3311;48.32423000;14.29074500;2022-11-20T08:00:25;12.00;58.10
6556;DHT22;3311;48.32423000;14.29074500;2022-11-20T08:02:54;12.00;58.00
6556;DHT22;3311;48.32423000;14.29074500;2022-11-20T08:05:21;12.00;58.00
6556;DHT22;3311;48.32423000;14.29074500;2022-11-20T08:07:48;12.10;58.00
6556;DHT22;3311;48.32423000;14.29074500;2022-11-20T08:10:16;12.10;57.90
6556;DHT22;3311;48.32423000;14.29074500;2022-11-20T08:12:44;12.10;58.00
6556;DHT22;3311;48.32423000;14.29074500;2022-11-20T08:15:29;12.10;58.00
6556;DHT22;3311;48.32423000;14.29074500;2022-11-20T08:18:02;12.10;58.10
6556;DHT22;3311;48.32423000;14.29074500;2022-11-20T08:20:30;12.10;58.00
6556;DHT22;3311;48.32423000;14.29074500;2022-11-20T08:23:01;12.10;58.00
6556;DHT22;3311;48.32423000;14.29074500;2022-11-20T08:25:29;12.10;58.00
6556;DHT22;3311;48.32423000;14.29074500;2022-11-20T08:27:57;12.10;58.00
6556;DHT22;3311;48.32423000;14.29074500;2022-11-20T08:30:25;12.20;58.00
6556;DHT22;3311;48.32423000;14.29074500;2022-11-20T08:32:54;12.20;58.00
6556;DHT22;3311;48.32423000;14.29074500;2022-11-20T08:35:23;12.20;57.90
6556;DHT22;3311;48.32423000;14.29074500;2022-11-20T08:37:50;12.20;58.00
6556;DHT22;3311;48.32423000;14.29074500;2022-11-20T08:40:18;12.30;58.00
6556;DHT22;3311;48.32423000;14.29074500;2022-11-20T08:42:48;12.30;58.00
6556;DHT22;3311;48.32423000;14.29074500;2022-11-20T08:45:16;12.30;58.00
6556;DHT22;3311;48.32423000;14.29074500;2022-11-20T08:47:44;12.30;58.10
6556;DHT22;3311;48.32423000;14.29074500;2022-11-20T08:50:13;12.30;58.00
6556;DHT22;3311;48.32423000;14.29074500;2022-11-20T08:52:42;12.30;57.90
6556;DHT22;3311;48.32423000;14.29074500;2022-11-20T08:55:10;12.40;58.00
6556;DHT22;3311;48.32423000;14.29074500;2022-11-20T08:57:38;12.30;57.90
6556;DHT22;3311;48.32423000;14.29074500;2022-11-20T09:00:07;12.40;58.10
6556;DHT22;3311;48.32423000;14.29074500;2022-11-20T09:02:35;12.40;58.00
6556;DHT22;3311;48.32423000;14.29074500;2022-11-20T09:05:02;12.40;58.10
6556;DHT22;3311;48.32423000;14.29074500;2022-11-20T09:07:30;12.40;57.90
6556;DHT22;3311;48.32423000;14.29074500;2022-11-20T09:10:00;12.50;58.00
6556;DHT22;3311;48.32423000;14.29074500;2022-11-20T09:12:27;12.50;58.10
6556;DHT22;3311;48.32423000;14.29074500;2022-11-20T09:14:55;12.50;57.90
6556;DHT22;3311;48.32423000;14.29074500;2022-11-20T09:17:22;12.60;58.00
6556;DHT22;3311;48.32423000;14.29074500;2022-11-20T09:19:49;12.70;57.80
6556;DHT22;3311;48.32423000;14.29074500;2022-11-20T09:22:17;12.70;57.70
6556;DHT22;3311;48.32423000;14.29074500;2022-11-20T09:24:46;12.80;57.70
6556;DHT22;3311;48.32423000;14.29074500;2022-11-20T09:27:16;12.90;58.10
6556;DHT22;3311;48.32423000;14.29074500;2022-11-20T09:29:49;13.00;57.70
6556;DHT22;3311;48.32423000;14.29074500;2022-11-20T09:32:18;13.00;57.70
6556;DHT22;3311;48.32423000;14.29074500;2022-11-20T09:34:46;13.10;57.50
6556;DHT22;3311;48.32423000;14.29074500;2022-11-20T09:37:13;13.10;57.30
6556;DHT22;3311;48.32423000;14.29074500;2022-11-20T09:39:41;13.20;57.20
6556;DHT22;3311;48.32423000;14.29074500;2022-11-20T09:42:36;13.30;57.10
6556;DHT22;3311;48.32423000;14.29074500;2022-11-20T09:45:22;13.40;56.90
6556;DHT22;3311;48.32423000;14.29074500;2022-11-20T09:48:01;13.40;56.80
6556;DHT22;3311;48.32423000;14.29074500;2022-11-20T09:50:32;13.30;56.60
6556;DHT22;3311;48.32423000;14.29074500;2022-11-20T09:53:19;13.40;56.70
6556;DHT22;3311;48.32423000;14.29074500;2022-11-20T09:55:49;13.40;56.70
6556;DHT22;3311;48.32423000;14.29074500;2022-11-20T09:58:27;13.40;56.70
6556;DHT22;3311;48.32423000;14.29074500;2022-11-20T10:01:05;13.40;56.60
6556;DHT22;3311;48.32423000;14.29074500;2022-11-20T10:03:39;13.40;56.60
6556;DHT22;3311;48.32423000;14.29074500;2022-11-20T10:06:15;13.50;56.70
6556;DHT22;3311;48.32423000;14.29074500;2022-11-20T10:08:51;13.50;56.60
6556;DHT22;3311;48.32423000;14.29074500;2022-11-20T10:11:32;13.50;57.10
6556;DHT22;3311;48.32423000;14.29074500;2022-11-20T10:14:15;13.50;56.60
6556;DHT22;3311;48.32423000;14.29074500;2022-11-20T10:16:52;13.50;56.50
6556;DHT22;3311;48.32423000;14.29074500;2022-11-20T10:19:32;13.50;56.50
6556;DHT22;3311;48.32423000;14.29074500;2022-11-20T10:22:07;13.50;56.60
6556;DHT22;3311;48.32423000;14.29074500;2022-11-20T10:24:48;13.60;56.60
6556;DHT22;3311;48.32423000;14.29074500;2022-11-20T10:27:31;13.60;56.60
6556;DHT22;3311;48.32423000;14.29074500;2022-11-20T10:30:07;13.60;56.50
6556;DHT22;3311;48.32423000;14.29074500;2022-11-20T10:32:38;13.60;56.50
6556;DHT22;3311;48.32423000;14.29074500;2022-11-20T10:35:15;13.60;56.50
6556;DHT22;3311;48.32423000;14.29074500;2022-11-20T10:37:46;13.60;56.50
6556;DHT22;3311;48.32423000;14.29074500;2022-11-20T10:40:23;13.60;57.00
6556;DHT22;3311;48.32423000;14.29074500;2022-11-20T10:42:56;13.60;56.50
6556;DHT22;3311;48.32423000;14.29074500;2022-11-20T10:45:36;13.60;56.50
6556;DHT22;3311;48.32423000;14.29074500;2022-11-20T10:48:12;13.70;56.60
6556;DHT22;3311;48.32423000;14.29074500;2022-11-20T10:50:59;13.70;56.60
6556;DHT22;3311;48.32423000;14.29074500;2022-11-20T10:53:47;13.70;56.50
6556;DHT22;3311;48.32423000;14.29074500;2022-11-20T10:56:22;13.70;56.60
6556;DHT22;3311;48.32423000;14.29074500;2022-11-20T10:59:22;13.70;56.60
6556;DHT22;3311;48.32423000;14.29074500;2022-11-20T11:01:54;13.70;56.60
6556;DHT22;3311;48.32423000;14.29074500;2022-11-20T11:04:33;13.70;56.60
6556;DHT22;3311;48.32423000;14.29074500;2022-11-20T11:07:08;13.70;56.60
6556;DHT22;3311;48.32423000;14.29074500;2022-11-20T11:09:41;13.70;56.60
6556;DHT22;3311;48.32423000;14.29074500;2022-11-20T11:12:10;13.80;56.70
6556;DHT22;3311;48.32423000;14.29074500;2022-11-20T11:14:47;13.80;56.70
6556;DHT22;3311;48.32423000;14.29074500;2022-11-20T11:17:26;13.70;56.60
6556;DHT22;3311;48.32423000;14.29074500;2022-11-20T11:19:59;13.70;56.60
6556;DHT22;3311;48.32423000;14.29074500;2022-11-20T11:22:29;13.70;56.50
6556;DHT22;3311;48.32423000;14.29074500;2022-11-20T11:25:00;13.80;56.60
6556;DHT22;3311;48.32423000;14.29074500;2022-11-20T11:27:27;13.80;57.40
6556;DHT22;3311;48.32423000;14.29074500;2022-11-20T11:30:12;13.80;58.60
6556;DHT22;3311;48.32423000;14.29074500;2022-11-20T11:32:42;13.90;58.60
6556;DHT22;3311;48.32423000;14.29074500;2022-11-20T11:35:22;13.90;58.50
6556;DHT22;3311;48.32423000;14.29074500;2022-11-20T11:37:51;13.90;58.60
6556;DHT22;3311;48.32423000;14.29074500;2022-11-20T11:40:21;13.90;58.40
6556;DHT22;3311;48.32423000;14.29074500;2022-11-20T11:42:58;13.80;58.40
6556;DHT22;3311;48.32423000;14.29074500;2022-11-20T11:45:27;13.90;58.30
6556;DHT22;3311;48.32423000;14.29074500;2022-11-20T11:47:57;13.80;58.20
6556;DHT22;3311;48.32423000;14.29074500;2022-11-20T11:50:26;13.90;58.30
6556;DHT22;3311;48.32423000;14.29074500;2022-11-20T11:52:59;13.80;58.10
6556;DHT22;3311;48.32423000;14.29074500;2022-11-20T11:55:33;13.90;58.20
6556;DHT22;3311;48.32423000;14.29074500;2022-11-20T11:58:14;13.80;58.00
6556;DHT22;3311;48.32423000;14.29074500;2022-11-20T12:00:51;13.80;58.10
6556;DHT22;3311;48.32423000;14.29074500;2022-11-20T12:03:27;13.80;58.10
6556;DHT22;3311;48.32423000;14.29074500;2022-11-20T12:05:59;13.80;58.20
6556;DHT22;3311;48.32423000;14.29074500;2022-11-20T12:08:36;13.70;58.70
6556;DHT22;3311;48.32423000;14.29074500;2022-11-20T12:11:12;13.70;58.30
6556;DHT22;3311;48.32423000;14.29074500;2022-11-20T12:13:50;13.70;58.30
6556;DHT22;3311;48.32423000;14.29074500;2022-11-20T12:16:20;13.70;58.40
6556;DHT22;3311;48.32423000;14.29074500;2022-11-20T12:18:52;13.60;58.40
6556;DHT22;3311;48.32423000;14.29074500;2022-11-20T12:21:25;13.60;58.50
6556;DHT22;3311;48.32423000;14.29074500;2022-11-20T12:24:27;13.60;58.60
6556;DHT22;3311;48.32423000;14.29074500;2022-11-20T12:27:08;13.50;58.60
6556;DHT22;3311;48.32423000;14.29074500;2022-11-20T12:29:47;13.50;58.60
6556;DHT22;3311;48.32423000;14.29074500;2022-11-20T12:32:40;13.60;58.70
6556;DHT22;3311;48.32423000;14.29074500;2022-11-20T12:35:29;13.60;58.70
6556;DHT22;3311;48.32423000;14.29074500;2022-11-20T12:38:23;13.60;58.60
6556;DHT22;3311;48.32423000;14.29074500;2022-11-20T12:41:01;13.70;58.50
6556;DHT22;3311;48.32423000;14.29074500;2022-11-20T12:43:37;13.70;58.50
6556;DHT22;3311;48.32423000;14.29074500;2022-11-20T12:46:30;13.70;58.40
6556;DHT22;3311;48.32423000;14.29074500;2022-11-20T12:49:28;13.70;58.40
6556;DHT22;3311;48.32423000;14.29074500;2022-11-20T12:52:11;13.80;58.30
6556;DHT22;3311;48.32423000;14.29074500;2022-11-20T12:57:53;13.80;58.20
6556;DHT22;3311;48.32423000;14.29074500;2022-11-20T13:00:24;13.80;58.30
6556;DHT22;3311;48.32423000;14.29074500;2022-11-20T13:03:31;13.80;58.30
6556;DHT22;3311;48.32423000;14.29074500;2022-11-20T13:06:11;13.80;58.40
6556;DHT22;3311;48.32423000;14.29074500;2022-11-20T13:08:49;13.70;58.30
6556;DHT22;3311;48.32423000;14.29074500;2022-11-20T13:11:23;13.70;58.50
6556;DHT22;3311;48.32423000;14.29074500;2022-11-20T13:14:05;13.70;58.60
6556;DHT22;3311;48.32423000;14.29074500;2022-11-20T13:16:40;13.60;58.60
6556;DHT22;3311;48.32423000;14.29074500;2022-11-20T13:19:13;13.60;58.80
6556;DHT22;3311;48.32423000;14.29074500;2022-11-20T13:21:43;13.60;58.90
6556;DHT22;3311;48.32423000;14.29074500;2022-11-20T13:24:30;13.60;58.90
6556;DHT22;3311;48.32423000;14.29074500;2022-11-20T13:27:18;13.60;58.90
6556;DHT22;3311;48.32423000;14.29074500;2022-11-20T13:29:59;13.60;59.00
6556;DHT22;3311;48.32423000;14.29074500;2022-11-20T13:32:31;13.60;59.00
6556;DHT22;3311;48.32423000;14.29074500;2022-11-20T13:35:08;13.60;58.90
6556;DHT22;3311;48.32423000;14.29074500;2022-11-20T13:38:06;13.60;58.80
6556;DHT22;3311;48.32423000;14.29074500;2022-11-20T13:40:50;13.70;58.90
6556;DHT22;3311;48.32423000;14.29074500;2022-11-20T13:43:32;13.70;58.80
6556;DHT22;3311;48.32423000;14.29074500;2022-11-20T13:46:03;13.60;58.90
6556;DHT22;3311;48.32423000;14.29074500;2022-11-20T13:48:33;13.60;58.90
6556;DHT22;3311;48.32423000;14.29074500;2022-11-20T13:51:13;13.60;58.90
6556;DHT22;3311;48.32423000;14.29074500;2022-11-20T13:54:04;13.60;59.00
6556;DHT22;3311;48.32423000;14.29074500;2022-11-20T13:56:46;13.60;59.10
6556;DHT22;3311;48.32423000;14.29074500;2022-11-20T13:59:33;13.60;59.10
6556;DHT22;3311;48.32423000;14.29074500;2022-11-20T14:02:05;13.60;59.10
6556;DHT22;3311;48.32423000;14.29074500;2022-11-20T14:04:42;13.70;59.30
6556;DHT22;3311;48.32423000;14.29074500;2022-11-20T14:07:12;13.60;59.20
6556;DHT22;3311;48.32423000;14.29074500;2022-11-20T14:09:50;13.60;59.30
6556;DHT22;3311;48.32423000;14.29074500;2022-11-20T14:12:23;13.50;59.30
6556;DHT22;3311;48.32423000;14.29074500;2022-11-20T14:14:51;13.50;59.30
6556;DHT22;3311;48.32423000;14.29074500;2022-11-20T14:17:23;13.50;59.30
6556;DHT22;3311;48.32423000;14.29074500;2022-11-20T14:19:59;13.50;59.40
6556;DHT22;3311;48.32423000;14.29074500;2022-11-20T14:22:30;13.50;59.40
6556;DHT22;3311;48.32423000;14.29074500;2022-11-20T14:25:05;13.50;59.50
6556;DHT22;3311;48.32423000;14.29074500;2022-11-20T14:27:37;13.50;59.60
6556;DHT22;3311;48.32423000;14.29074500;2022-11-20T14:30:11;13.40;59.50
6556;DHT22;3311;48.32423000;14.29074500;2022-11-20T14:32:41;13.50;59.60
6556;DHT22;3311;48.32423000;14.29074500;2022-11-20T14:35:14;13.40;59.60
6556;DHT22;3311;48.32423000;14.29074500;2022-11-20T14:37:44;13.50;59.80
6556;DHT22;3311;48.32423000;14.29074500;2022-11-20T14:40:24;13.40;59.60
6556;DHT22;3311;48.32423000;14.29074500;2022-11-20T14:42:54;13.40;59.70
6556;DHT22;3311;48.32423000;14.29074500;2022-11-20T14:45:22;13.40;59.80
6556;DHT22;3311;48.32423000;14.29074500;2022-11-20T14:47:51;13.40;59.80
6556;DHT22;3311;48.32423000;14.29074500;2022-11-20T14:50:22;13.40;59.80
6556;DHT22;3311;48.32423000;14.29074500;2022-11-20T14:52:53;13.40;59.80
6556;DHT22;3311;48.32423000;14.29074500;2022-11-20T14:55:30;13.40;59.80
6556;DHT22;3311;48.32423000;14.29074500;2022-11-20T14:58:00;13.40;59.90
6556;DHT22;3311;48.32423000;14.29074500;2022-11-20T15:00:29;13.40;60.00
6556;DHT22;3311;48.32423000;14.29074500;2022-11-20T15:02:57;13.40;59.90
6556;DHT22;3311;48.32423000;14.29074500;2022-11-20T15:05:26;14.20;60.80
6556;DHT22;3311;48.32423000;14.29074500;2022-11-20T15:08:12;13.40;60.00
6556;DHT22;3311;48.32423000;14.29074500;2022-11-20T15:10:46;13.40;60.00
6556;DHT22;3311;48.32423000;14.29074500;2022-11-20T15:13:26;13.40;60.00
6556;DHT22;3311;48.32423000;14.29074500;2022-11-20T15:15:54;13.40;60.00
6556;DHT22;3311;48.32423000;14.29074500;2022-11-20T15:18:28;13.40;60.10
6556;DHT22;3311;48.32423000;14.29074500;2022-11-20T15:20:58;13.40;60.10
6556;DHT22;3311;48.32423000;14.29074500;2022-11-20T15:23:28;13.40;60.10
6556;DHT22;3311;48.32423000;14.29074500;2022-11-20T15:25:56;13.40;60.20
6556;DHT22;3311;48.32423000;14.29074500;2022-11-20T15:28:29;13.40;60.20
6556;DHT22;3311;48.32423000;14.29074500;2022-11-20T15:30:57;13.40;60.80
6556;DHT22;3311;48.32423000;14.29074500;2022-11-20T15:33:25;13.40;60.20
6556;DHT22;3311;48.32423000;14.29074500;2022-11-20T15:35:52;13.40;60.20
6556;DHT22;3311;48.32423000;14.29074500;2022-11-20T15:38:19;13.40;60.30
6556;DHT22;3311;48.32423000;14.29074500;2022-11-20T15:40:46;13.40;60.30
6556;DHT22;3311;48.32423000;14.29074500;2022-11-20T15:43:14;13.40;60.30
6556;DHT22;3311;48.32423000;14.29074500;2022-11-20T15:45:45;13.40;60.30
6556;DHT22;3311;48.32423000;14.29074500;2022-11-20T15:48:17;13.40;60.30
6556;DHT22;3311;48.32423000;14.29074500;2022-11-20T15:50:50;13.40;60.30
6556;DHT22;3311;48.32423000;14.29074500;2022-11-20T15:53:19;13.40;60.40
6556;DHT22;3311;48.32423000;14.29074500;2022-11-20T15:55:46;13.40;60.40
6556;DHT22;3311;48.32423000;14.29074500;2022-11-20T15:58:13;13.40;60.40
6556;DHT22;3311;48.32423000;14.29074500;2022-11-20T16:00:44;13.40;60.40
6556;DHT22;3311;48.32423000;14.29074500;2022-11-20T16:03:12;13.40;60.40
6556;DHT22;3311;48.32423000;14.29074500;2022-11-20T16:05:39;13.40;60.50
6556;DHT22;3311;48.32423000;14.29074500;2022-11-20T16:08:07;13.40;60.50
6556;DHT22;3311;48.32423000;14.29074500;2022-11-20T16:10:35;13.40;60.50
6556;DHT22;3311;48.32423000;14.29074500;2022-11-20T16:13:04;13.40;60.50
6556;DHT22;3311;48.32423000;14.29074500;2022-11-20T16:15:54;13.40;60.50
6556;DHT22;3311;48.32423000;14.29074500;2022-11-20T16:18:23;13.40;60.50
6556;DHT22;3311;48.32423000;14.29074500;2022-11-20T16:20:54;13.40;60.50
6556;DHT22;3311;48.32423000;14.29074500;2022-11-20T16:23:22;13.40;60.50
6556;DHT22;3311;48.32423000;14.29074500;2022-11-20T16:25:51;13.40;60.50
6556;DHT22;3311;48.32423000;14.29074500;2022-11-20T16:28:18;13.40;60.50
6556;DHT22;3311;48.32423000;14.29074500;2022-11-20T16:30:46;13.40;60.50
6556;DHT22;3311;48.32423000;14.29074500;2022-11-20T16:33:16;13.40;60.50
6556;DHT22;3311;48.32423000;14.29074500;2022-11-20T16:35:44;13.40;60.50
6556;DHT22;3311;48.32423000;14.29074500;2022-11-20T16:38:12;13.40;60.60
6556;DHT22;3311;48.32423000;14.29074500;2022-11-20T16:40:39;13.40;60.60
6556;DHT22;3311;48.32423000;14.29074500;2022-11-20T16:43:08;13.40;60.60
6556;DHT22;3311;48.32423000;14.29074500;2022-11-20T16:45:43;13.40;60.60
6556;DHT22;3311;48.32423000;14.29074500;2022-11-20T16:48:16;13.40;60.60
6556;DHT22;3311;48.32423000;14.29074500;2022-11-20T16:50:48;13.40;60.60
6556;DHT22;3311;48.32423000;14.29074500;2022-11-20T16:53:16;13.40;60.60
6556;DHT22;3311;48.32423000;14.29074500;2022-11-20T16:55:44;13.40;60.70
6556;DHT22;3311;48.32423000;14.29074500;2022-11-20T16:58:11;13.40;60.70
6556;DHT22;3311;48.32423000;14.29074500;2022-11-20T17:00:38;13.40;60.70
6556;DHT22;3311;48.32423000;14.29074500;2022-11-20T17:03:07;13.40;60.70
6556;DHT22;3311;48.32423000;14.29074500;2022-11-20T17:05:36;13.40;60.70
6556;DHT22;3311;48.32423000;14.29074500;2022-11-20T17:08:03;13.40;60.70
6556;DHT22;3311;48.32423000;14.29074500;2022-11-20T17:10:30;13.40;60.70
6556;DHT22;3311;48.32423000;14.29074500;2022-11-20T17:12:58;13.40;60.80
6556;DHT22;3311;48.32423000;14.29074500;2022-11-20T17:15:25;13.40;60.80
6556;DHT22;3311;48.32423000;14.29074500;2022-11-20T17:17:52;13.40;60.80
6556;DHT22;3311;48.32423000;14.29074500;2022-11-20T17:20:19;13.40;60.80
6556;DHT22;3311;48.32423000;14.29074500;2022-11-20T17:22:48;13.40;60.80
6556;DHT22;3311;48.32423000;14.29074500;2022-11-20T17:25:15;13.40;60.80
6556;DHT22;3311;48.32423000;14.29074500;2022-11-20T17:27:43;13.40;60.80
6556;DHT22;3311;48.32423000;14.29074500;2022-11-20T17:30:10;13.40;60.80
6556;DHT22;3311;48.32423000;14.29074500;2022-11-20T17:32:38;13.50;60.90
6556;DHT22;3311;48.32423000;14.29074500;2022-11-20T17:35:11;13.40;60.90
6556;DHT22;3311;48.32423000;14.29074500;2022-11-20T17:37:39;13.40;60.90
6556;DHT22;3311;48.32423000;14.29074500;2022-11-20T17:40:08;13.40;60.90
6556;DHT22;3311;48.32423000;14.29074500;2022-11-20T17:42:35;13.40;60.90
6556;DHT22;3311;48.32423000;14.29074500;2022-11-20T17:45:03;13.40;60.90
6556;DHT22;3311;48.32423000;14.29074500;2022-11-20T17:47:33;13.40;60.90
6556;DHT22;3311;48.32423000;14.29074500;2022-11-20T17:50:00;13.40;60.90
6556;DHT22;3311;48.32423000;14.29074500;2022-11-20T17:52:27;13.40;60.90
6556;DHT22;3311;48.32423000;14.29074500;2022-11-20T17:54:55;13.40;60.90
6556;DHT22;3311;48.32423000;14.29074500;2022-11-20T17:57:25;13.40;60.90
6556;DHT22;3311;48.32423000;14.29074500;2022-11-20T18:00:11;13.50;61.00
6556;DHT22;3311;48.32423000;14.29074500;2022-11-20T18:02:41;13.50;61.00
6556;DHT22;3311;48.32423000;14.29074500;2022-11-20T18:05:08;13.50;61.00
6556;DHT22;3311;48.32423000;14.29074500;2022-11-20T18:07:36;13.50;61.00
6556;DHT22;3311;48.32423000;14.29074500;2022-11-20T18:10:04;13.40;60.90
6556;DHT22;3311;48.32423000;14.29074500;2022-11-20T18:12:33;13.50;61.10
6556;DHT22;3311;48.32423000;14.29074500;2022-11-20T18:15:01;13.50;61.10
6556;DHT22;3311;48.32423000;14.29074500;2022-11-20T18:17:28;13.40;61.00
6556;DHT22;3311;48.32423000;14.29074500;2022-11-20T18:19:55;13.40;61.00
6556;DHT22;3311;48.32423000;14.29074500;2022-11-20T18:22:22;13.50;61.10
6556;DHT22;3311;48.32423000;14.29074500;2022-11-20T18:24:49;13.50;61.10
6556;DHT22;3311;48.32423000;14.29074500;2022-11-20T18:27:19;13.50;61.10
6556;DHT22;3311;48.32423000;14.29074500;2022-11-20T18:29:48;13.50;61.10
6556;DHT22;3311;48.32423000;14.29074500;2022-11-20T18:32:17;13.50;61.20
6556;DHT22;3311;48.32423000;14.29074500;2022-11-20T18:34:44;13.50;61.10
6556;DHT22;3311;48.32423000;14.29074500;2022-11-20T18:37:11;13.40;61.00
6556;DHT22;3311;48.32423000;14.29074500;2022-11-20T18:39:41;13.50;61.20
6556;DHT22;3311;48.32423000;14.29074500;2022-11-20T18:42:11;13.50;61.20
6556;DHT22;3311;48.32423000;14.29074500;2022-11-20T18:44:58;13.50;61.20
6556;DHT22;3311;48.32423000;14.29074500;2022-11-20T18:47:29;13.50;61.20
6556;DHT22;3311;48.32423000;14.29074500;2022-11-20T18:49:58;13.50;61.20
6556;DHT22;3311;48.32423000;14.29074500;2022-11-20T18:52:29;13.50;61.20
6556;DHT22;3311;48.32423000;14.29074500;2022-11-20T18:54:59;13.50;61.90
6556;DHT22;3311;48.32423000;14.29074500;2022-11-20T18:57:32;13.50;61.20
6556;DHT22;3311;48.32423000;14.29074500;2022-11-20T19:00:01;13.50;61.30
6556;DHT22;3311;48.32423000;14.29074500;2022-11-20T19:02:29;13.50;61.30
6556;DHT22;3311;48.32423000;14.29074500;2022-11-20T19:04:56;13.50;61.30
6556;DHT22;3311;48.32423000;14.29074500;2022-11-20T19:07:23;13.50;61.20
6556;DHT22;3311;48.32423000;14.29074500;2022-11-20T19:09:51;13.50;61.30
6556;DHT22;3311;48.32423000;14.29074500;2022-11-20T19:12:19;13.50;61.30
6556;DHT22;3311;48.32423000;14.29074500;2022-11-20T19:14:47;13.50;61.30
6556;DHT22;3311;48.32423000;14.29074500;2022-11-20T19:17:16;13.50;61.30
6556;DHT22;3311;48.32423000;14.29074500;2022-11-20T19:19:43;13.50;61.30
6556;DHT22;3311;48.32423000;14.29074500;2022-11-20T19:22:11;13.50;61.30
6556;DHT22;3311;48.32423000;14.29074500;2022-11-20T19:24:39;13.50;61.40
6556;DHT22;3311;48.32423000;14.29074500;2022-11-20T19:27:08;13.50;61.40
6556;DHT22;3311;48.32423000;14.29074500;2022-11-20T19:29:39;13.50;61.30
6556;DHT22;3311;48.32423000;14.29074500;2022-11-20T19:32:07;13.50;61.40
6556;DHT22;3311;48.32423000;14.29074500;2022-11-20T19:34:35;13.50;61.40
6556;DHT22;3311;48.32423000;14.29074500;2022-11-20T19:37:03;13.50;61.40
6556;DHT22;3311;48.32423000;14.29074500;2022-11-20T19:39:31;13.50;61.50
6556;DHT22;3311;48.32423000;14.29074500;2022-11-20T19:42:00;13.50;61.50
6556;DHT22;3311;48.32423000;14.29074500;2022-11-20T19:44:33;13.50;61.50
6556;DHT22;3311;48.32423000;14.29074500;2022-11-20T19:47:02;13.50;61.50
6556;DHT22;3311;48.32423000;14.29074500;2022-11-20T19:49:30;13.50;61.50
6556;DHT22;3311;48.32423000;14.29074500;2022-11-20T19:51:58;13.50;61.40
6556;DHT22;3311;48.32423000;14.29074500;2022-11-20T19:54:26;13.50;61.50
6556;DHT22;3311;48.32423000;14.29074500;2022-11-20T19:56:53;13.50;61.50
6556;DHT22;3311;48.32423000;14.29074500;2022-11-20T19:59:23;13.50;61.60
6556;DHT22;3311;48.32423000;14.29074500;2022-11-20T20:01:54;13.50;61.60
6556;DHT22;3311;48.32423000;14.29074500;2022-11-20T20:04:24;13.50;61.60
6556;DHT22;3311;48.32423000;14.29074500;2022-11-20T20:06:52;13.50;61.60
6556;DHT22;3311;48.32423000;14.29074500;2022-11-20T20:09:20;13.50;61.60
6556;DHT22;3311;48.32423000;14.29074500;2022-11-20T20:11:48;13.50;61.60
6556;DHT22;3311;48.32423000;14.29074500;2022-11-20T20:14:16;13.50;61.60
6556;DHT22;3311;48.32423000;14.29074500;2022-11-20T20:16:43;13.50;61.60
6556;DHT22;3311;48.32423000;14.29074500;2022-11-20T20:19:12;13.50;61.60
6556;DHT22;3311;48.32423000;14.29074500;2022-11-20T20:21:41;13.50;61.60
6556;DHT22;3311;48.32423000;14.29074500;2022-11-20T20:24:09;13.50;61.60
6556;DHT22;3311;48.32423000;14.29074500;2022-11-20T20:26:39;13.50;61.70
6556;DHT22;3311;48.32423000;14.29074500;2022-11-20T20:29:06;13.50;61.70
6556;DHT22;3311;48.32423000;14.29074500;2022-11-20T20:31:34;13.50;61.70
6556;DHT22;3311;48.32423000;14.29074500;2022-11-20T20:34:02;13.50;61.70
6556;DHT22;3311;48.32423000;14.29074500;2022-11-20T20:36:30;13.50;61.70
6556;DHT22;3311;48.32423000;14.29074500;2022-11-20T20:38:58;13.50;61.60
6556;DHT22;3311;48.32423000;14.29074500;2022-11-20T20:41:27;13.50;61.70
6556;DHT22;3311;48.32423000;14.29074500;2022-11-20T20:43:56;13.50;61.70
6556;DHT22;3311;48.32423000;14.29074500;2022-11-20T20:46:40;13.50;61.70
6556;DHT22;3311;48.32423000;14.29074500;2022-11-20T20:49:08;13.50;61.80
6556;DHT22;3311;48.32423000;14.29074500;2022-11-20T20:51:35;13.50;61.80
6556;DHT22;3311;48.32423000;14.29074500;2022-11-20T20:54:03;13.50;61.80
6556;DHT22;3311;48.32423000;14.29074500;2022-11-20T20:56:30;13.50;61.80
6556;DHT22;3311;48.32423000;14.29074500;2022-11-20T20:58:59;13.50;61.80
6556;DHT22;3311;48.32423000;14.29074500;2022-11-20T21:01:27;13.50;61.90
6556;DHT22;3311;48.32423000;14.29074500;2022-11-20T21:03:56;13.50;61.80
6556;DHT22;3311;48.32423000;14.29074500;2022-11-20T21:06:24;13.50;61.80
6556;DHT22;3311;48.32423000;14.29074500;2022-11-20T21:08:53;13.50;61.80
6556;DHT22;3311;48.32423000;14.29074500;2022-11-20T21:11:23;13.50;61.80
6556;DHT22;3311;48.32423000;14.29074500;2022-11-20T21:13:51;13.50;61.90